createdAt,value
2023-04-02T00:00:43.305Z,9.358541
2023-04-02T00:01:43.333Z,9.358508
2023-04-02T00:02:43.302Z,9.358481
2023-04-02T00:03:43.330Z,9.358490
2023-04-02T00:04:43.277Z,9.358465
2023-04-02T00:05:43.246Z,9.358532
2023-04-02T00:06:43.257Z,9.358543
2023-04-02T00:07:43.249Z,9.358511
2023-04-02T00:08:43.230Z,9.358563
2023-04-02T00:09:43.214Z,9.358603
2023-04-02T00:10:43.211Z,9.358577
2023-04-02T00:11:43.215Z,9.358620
2023-04-02T00:12:43.173Z,9.358557
2023-04-02T00:13:43.197Z,9.358536
2023-04-02T00:14:43.166Z,9.358533
2023-04-02T00:15:43.185Z,9.358614
2023-04-02T00:16:43.195Z,9.358593
2023-04-02T00:17:43.151Z,9.358608
2023-04-02T00:18:43.148Z,9.358631
2023-04-02T00:19:43.112Z,9.358623
2023-04-02T00:20:43.129Z,9.358626
2023-04-02T00:21:43.106Z,9.358635
2023-04-02T00:22:43.092Z,9.358648
2023-04-02T00:23:43.100Z,9.358610
2023-04-02T00:24:43.081Z,9.358656
2023-04-02T00:25:43.147Z,9.358622
2023-04-02T00:26:43.047Z,9.358678
2023-04-02T00:27:43.060Z,9.358668
2023-04-02T00:28:43.026Z,9.358700
2023-04-02T00:29:43.047Z,9.358670
2023-04-02T00:30:43.038Z,9.358587
2023-04-02T00:31:43.041Z,9.358592
2023-04-02T00:32:43.010Z,9.358566
2023-04-02T00:33:42.976Z,9.358576
2023-04-02T00:34:42.987Z,9.358576
2023-04-02T00:35:43.002Z,9.358566
2023-04-02T00:36:42.930Z,9.358582
2023-04-02T00:37:42.952Z,9.358592
2023-04-02T00:38:42.913Z,9.358613
2023-04-02T00:39:42.906Z,9.358627
2023-04-02T00:40:42.889Z,9.358581
2023-04-02T00:41:42.890Z,9.358563
2023-04-02T00:42:42.879Z,9.358519
2023-04-02T00:43:42.875Z,9.358539
2023-04-02T00:44:42.883Z,9.358607
2023-04-02T00:45:42.859Z,9.358620
2023-04-02T00:46:42.844Z,9.358596
2023-04-02T00:47:42.879Z,9.358596
2023-04-02T00:48:42.841Z,9.358604
2023-04-02T00:49:42.819Z,9.358515
2023-04-02T00:50:42.811Z,9.358642
2023-04-02T00:51:42.792Z,9.358665
2023-04-02T00:52:42.805Z,9.358614
2023-04-02T00:53:42.778Z,9.358610
2023-04-02T00:54:42.759Z,9.358624
2023-04-02T00:55:42.770Z,9.358562
2023-04-02T00:56:42.752Z,9.358555
2023-04-02T00:57:42.742Z,9.358547
2023-04-02T00:58:42.725Z,9.358555
2023-04-02T00:59:42.719Z,9.358543
2023-04-02T01:00:42.723Z,9.358547
2023-04-02T01:01:42.898Z,9.358584
2023-04-02T01:02:42.830Z,9.358607
2023-04-02T01:03:42.873Z,9.358623
2023-04-02T01:04:42.653Z,9.358597
2023-04-02T01:05:42.647Z,9.358608
2023-04-02T01:06:42.641Z,9.358574
2023-04-02T01:07:42.621Z,9.358570
2023-04-02T01:08:42.629Z,9.358589
2023-04-02T01:09:42.621Z,9.358606
2023-04-02T01:10:42.624Z,9.358599
2023-04-02T01:11:42.600Z,9.358595
2023-04-02T01:12:42.568Z,9.358582
2023-04-02T01:13:42.565Z,9.358575
2023-04-02T01:14:42.552Z,9.358652
2023-04-02T01:15:42.546Z,9.358632
2023-04-02T01:16:42.563Z,9.358585
2023-04-02T01:17:42.604Z,9.358600
2023-04-02T01:18:42.517Z,9.358635
2023-04-02T01:19:42.500Z,9.358640
2023-04-02T01:20:42.504Z,9.358624
2023-04-02T01:21:42.544Z,9.358609
2023-04-02T01:22:42.482Z,9.358593
2023-04-02T01:23:42.457Z,9.358613
2023-04-02T01:24:42.455Z,9.358572
2023-04-02T01:25:42.459Z,9.358567
2023-04-02T01:26:42.436Z,9.358563
2023-04-02T01:27:42.423Z,9.358551
2023-04-02T01:28:42.395Z,9.358584
2023-04-02T01:29:42.410Z,9.358666
2023-04-02T01:30:42.382Z,9.358653
2023-04-02T01:31:42.441Z,9.358665
2023-04-02T01:32:42.393Z,9.358714
2023-04-02T01:33:42.369Z,9.358651
2023-04-02T01:34:42.339Z,9.358606
2023-04-02T01:35:42.385Z,9.358539
2023-04-02T01:36:42.336Z,9.358526
2023-04-02T01:37:42.300Z,9.358608
2023-04-02T01:38:43.302Z,9.358592
2023-04-02T01:39:42.301Z,9.358605
2023-04-02T01:40:42.278Z,9.358648
2023-04-02T01:41:42.285Z,9.358566
2023-04-02T01:42:42.282Z,9.358550
2023-04-02T01:43:42.260Z,9.358576
2023-04-02T01:44:42.250Z,9.358504
2023-04-02T01:45:42.227Z,9.358538
2023-04-02T01:46:42.283Z,9.358631
2023-04-02T01:47:42.253Z,9.358705
2023-04-02T01:48:42.189Z,9.358705
2023-04-02T01:49:42.210Z,9.358662
2023-04-02T01:50:42.164Z,9.358612
2023-04-02T01:51:42.162Z,9.358562
2023-04-02T01:52:42.162Z,9.358581
2023-04-02T01:53:42.128Z,9.358594
2023-04-02T01:54:42.145Z,9.358569
2023-04-02T01:55:42.136Z,9.358530
2023-04-02T01:56:42.103Z,9.358510
2023-04-02T01:57:42.108Z,9.358480
2023-04-02T01:58:42.089Z,9.358468
2023-04-02T01:59:42.092Z,9.358513
2023-04-02T02:00:42.093Z,9.358556
2023-04-02T02:01:42.057Z,9.358562
2023-04-02T02:02:42.129Z,9.358496
2023-04-02T02:03:42.056Z,9.358541
2023-04-02T02:04:42.017Z,9.358535
2023-04-02T02:05:42.021Z,9.358590
2023-04-02T02:06:41.997Z,9.358609
2023-04-02T02:07:41.999Z,9.358622
2023-04-02T02:08:41.989Z,9.358616
2023-04-02T02:09:41.970Z,9.358582
2023-04-02T02:10:41.980Z,9.358566
2023-04-02T02:11:41.945Z,9.358625
2023-04-02T02:12:41.949Z,9.358676
2023-04-02T02:13:42.252Z,9.358622
2023-04-02T02:14:41.939Z,9.358604
2023-04-02T02:15:41.924Z,9.358563
2023-04-02T02:16:42.094Z,9.358583
2023-04-02T02:17:41.970Z,9.358553
2023-04-02T02:18:41.869Z,9.358537
2023-04-02T02:19:41.873Z,9.358560
2023-04-02T02:20:41.867Z,9.358575
2023-04-02T02:21:41.869Z,9.358610
2023-04-02T02:22:41.841Z,9.358570
2023-04-02T02:23:41.832Z,9.358567
2023-04-02T02:24:41.849Z,9.358565
2023-04-02T02:25:41.833Z,9.358542
2023-04-02T02:26:41.787Z,9.358517
2023-04-02T02:27:41.799Z,9.358545
2023-04-02T02:28:41.788Z,9.358550
2023-04-02T02:29:41.783Z,9.358542
2023-04-02T02:30:41.757Z,9.358562
2023-04-02T02:31:41.802Z,9.358520
2023-04-02T02:32:41.767Z,9.358578
2023-04-02T02:33:41.742Z,9.358594
2023-04-02T02:34:41.715Z,9.358582
2023-04-02T02:35:41.775Z,9.358600
2023-04-02T02:36:41.691Z,9.358622
2023-04-02T02:37:41.704Z,9.358586
2023-04-02T02:38:41.673Z,9.358537
2023-04-02T02:39:41.677Z,9.358572
2023-04-02T02:40:41.665Z,9.358565
2023-04-02T02:41:41.652Z,9.358621
2023-04-02T02:42:41.637Z,9.358589
2023-04-02T02:43:41.637Z,9.358595
2023-04-02T02:44:41.622Z,9.358576
2023-04-02T02:45:41.650Z,9.358579
2023-04-02T02:46:41.594Z,9.358554
2023-04-02T02:47:41.588Z,9.358551
2023-04-02T02:48:41.576Z,9.358590
2023-04-02T02:49:41.584Z,9.358560
2023-04-02T02:50:41.563Z,9.358500
2023-04-02T02:51:41.531Z,9.358510
2023-04-02T02:52:41.524Z,9.358542
2023-04-02T02:53:41.519Z,9.358486
2023-04-02T02:54:41.534Z,9.358505
2023-04-02T02:55:41.504Z,9.358530
2023-04-02T02:56:41.508Z,9.358550
2023-04-02T02:57:41.488Z,9.358527
2023-04-02T02:58:41.475Z,9.358477
2023-04-02T02:59:41.463Z,9.358450
2023-04-02T03:00:41.474Z,9.358495
2023-04-02T03:01:41.476Z,9.358497
2023-04-02T03:02:41.574Z,9.358524
2023-04-02T03:03:41.585Z,9.358562
2023-04-02T03:04:41.440Z,9.358517
2023-04-02T03:05:41.462Z,9.358525
2023-04-02T03:06:41.392Z,9.358494
2023-04-02T03:07:41.398Z,9.358521
2023-04-02T03:08:41.365Z,9.358573
2023-04-02T03:09:41.353Z,9.358640
2023-04-02T03:10:41.344Z,9.358672
2023-04-02T03:11:41.345Z,9.358618
2023-04-02T03:12:41.357Z,9.358550
2023-04-02T03:13:41.324Z,9.358530
2023-04-02T03:14:41.303Z,9.358536
2023-04-02T03:15:41.359Z,9.358527
2023-04-02T03:16:41.314Z,9.358504
2023-04-02T03:17:41.319Z,9.358616
2023-04-02T03:18:41.276Z,9.358564
2023-04-02T03:19:41.266Z,9.358549
2023-04-02T03:20:41.272Z,9.358623
2023-04-02T03:21:41.242Z,9.358591
2023-04-02T03:22:41.224Z,9.358595
2023-04-02T03:23:41.246Z,9.358636
2023-04-02T03:24:41.203Z,9.358641
2023-04-02T03:25:41.195Z,9.358668
2023-04-02T03:26:41.177Z,9.358598
2023-04-02T03:27:41.281Z,9.358565
2023-04-02T03:28:41.168Z,9.358619
2023-04-02T03:29:41.159Z,9.358619
2023-04-02T03:31:13.065Z,9.358585
2023-04-02T03:31:41.145Z,9.358621
2023-04-02T03:32:41.193Z,9.358655
2023-04-02T03:33:41.113Z,9.358659
2023-04-02T03:34:41.099Z,9.358530
2023-04-02T03:35:41.113Z,9.358529
2023-04-02T03:36:41.112Z,9.358591
2023-04-02T03:37:41.068Z,9.358568
2023-04-02T03:38:41.077Z,9.358582
2023-04-02T03:39:41.063Z,9.358615
2023-04-02T03:40:41.069Z,9.358549
2023-04-02T03:41:41.021Z,9.358508
2023-04-02T03:42:41.027Z,9.358572
2023-04-02T03:43:41.006Z,9.358603
2023-04-02T03:44:40.989Z,9.358588
2023-04-02T03:45:41.027Z,9.358602
2023-04-02T03:46:41.025Z,9.358650
2023-04-02T03:47:40.997Z,9.358645
2023-04-02T03:48:40.978Z,9.358666
2023-04-02T03:49:40.950Z,9.358579
2023-04-02T03:50:40.938Z,9.358498
2023-04-02T03:51:40.939Z,9.358491
2023-04-02T03:52:40.925Z,9.358605
2023-04-02T03:53:40.895Z,9.358611
2023-04-02T03:54:40.921Z,9.358639
2023-04-02T03:55:41.914Z,9.358603
2023-04-02T03:56:40.882Z,9.358600
2023-04-02T03:57:40.886Z,9.358625
2023-04-02T03:58:40.870Z,9.358647
2023-04-02T03:59:40.854Z,9.358658
2023-04-02T04:00:40.820Z,9.358627
2023-04-02T04:01:40.849Z,9.358626
2023-04-02T04:02:40.856Z,9.358644
2023-04-02T04:03:40.856Z,9.358574
2023-04-02T04:04:40.792Z,9.358606
2023-04-02T04:05:40.774Z,9.358605
2023-04-02T04:06:40.775Z,9.358597
2023-04-02T04:07:40.775Z,9.358556
2023-04-02T04:08:40.730Z,9.358558
2023-04-02T04:09:40.758Z,9.358583
2023-04-02T04:10:40.725Z,9.358619
2023-04-02T04:11:40.718Z,9.358642
2023-04-02T04:12:40.712Z,9.358566
2023-04-02T04:13:40.689Z,9.358582
2023-04-02T04:14:41.360Z,9.358598
2023-04-02T04:15:40.668Z,9.358567
2023-04-02T04:16:40.735Z,9.358493
2023-04-02T04:17:40.699Z,9.358582
2023-04-02T04:18:40.666Z,9.358636
2023-04-02T04:19:40.637Z,9.358530
2023-04-02T04:20:40.602Z,9.358553
2023-04-02T04:21:40.605Z,9.358524
2023-04-02T04:22:40.620Z,9.358506
2023-04-02T04:23:40.604Z,9.358522
2023-04-02T04:24:40.557Z,9.358528
2023-04-02T04:25:40.602Z,9.358537
2023-04-02T04:26:40.550Z,9.358496
2023-04-02T04:27:40.543Z,9.358540
2023-04-02T04:28:40.571Z,9.358599
2023-04-02T04:29:40.526Z,9.358598
2023-04-02T04:30:40.499Z,9.358600
2023-04-02T04:31:40.536Z,9.358603
2023-04-02T04:32:40.568Z,9.358587
2023-04-02T04:33:40.496Z,9.358582
2023-04-02T04:34:40.464Z,9.358592
2023-04-02T04:35:40.629Z,9.358643
2023-04-02T04:36:40.482Z,9.358663
2023-04-02T04:37:42.682Z,9.358624
2023-04-02T04:38:40.416Z,9.358611
2023-04-02T04:39:40.419Z,9.358601
2023-04-02T04:40:40.455Z,9.358568
2023-04-02T04:41:40.377Z,9.358501
2023-04-02T04:42:40.408Z,9.358566
2023-04-02T04:43:40.379Z,9.358521
2023-04-02T04:44:40.363Z,9.358514
2023-04-02T04:45:40.417Z,9.358498
2023-04-02T04:46:40.373Z,9.358515
2023-04-02T04:47:40.388Z,9.358467
2023-04-02T04:48:40.306Z,9.358558
2023-04-02T04:49:40.334Z,9.358609
2023-04-02T04:50:40.317Z,9.358598
2023-04-02T04:51:40.300Z,9.358679
2023-04-02T04:52:40.318Z,9.358595
2023-04-02T04:53:40.273Z,9.358564
2023-04-02T04:54:40.247Z,9.358507
2023-04-02T04:55:40.293Z,9.358392
2023-04-02T04:56:40.287Z,9.358444
2023-04-02T04:57:40.210Z,9.358509
2023-04-02T04:58:40.255Z,9.358598
2023-04-02T04:59:40.221Z,9.358603
2023-04-02T05:00:41.195Z,9.358493
2023-04-02T05:01:40.199Z,9.358468
2023-04-02T05:02:40.214Z,9.358457
2023-04-02T05:03:40.184Z,9.358447
2023-04-02T05:04:40.197Z,9.358484
2023-04-02T05:05:40.142Z,9.358523
2023-04-02T05:06:40.148Z,9.358561
2023-04-02T05:07:40.132Z,9.358533
2023-04-02T05:08:40.127Z,9.358562
2023-04-02T05:09:40.107Z,9.358584
2023-04-02T05:10:40.110Z,9.358546
2023-04-02T05:11:40.086Z,9.358488
2023-04-02T05:12:40.056Z,9.358500
2023-04-02T05:13:40.081Z,9.358514
2023-04-02T05:14:40.066Z,9.358550
2023-04-02T05:15:40.123Z,9.358582
2023-04-02T05:16:40.074Z,9.358585
2023-04-02T05:17:40.077Z,9.358480
2023-04-02T05:18:40.009Z,9.358430
2023-04-02T05:19:40.000Z,9.358474
2023-04-02T05:20:40.002Z,9.358471
2023-04-02T05:21:39.973Z,9.358491
2023-04-02T05:22:41.388Z,9.358484
2023-04-02T05:23:39.965Z,9.358547
2023-04-02T05:24:39.925Z,9.358548
2023-04-02T05:25:39.941Z,9.358481
2023-04-02T05:26:39.951Z,9.358418
2023-04-02T05:27:39.922Z,9.358403
2023-04-02T05:28:39.880Z,9.358486
2023-04-02T05:29:39.900Z,9.358422
2023-04-02T05:30:39.864Z,9.358475
2023-04-02T05:31:39.955Z,9.358501
2023-04-02T05:32:39.937Z,9.358488
2023-04-02T05:33:39.856Z,9.358418
2023-04-02T05:34:39.839Z,9.358409
2023-04-02T05:35:39.880Z,9.358481
2023-04-02T05:36:39.825Z,9.358481
2023-04-02T05:37:39.842Z,9.358509
2023-04-02T05:38:39.789Z,9.358545
2023-04-02T05:39:39.786Z,9.358483
2023-04-02T05:40:39.783Z,9.358501
2023-04-02T05:41:39.760Z,9.358605
2023-04-02T05:42:39.743Z,9.358593
2023-04-02T05:43:39.769Z,9.358537
2023-04-02T05:44:39.765Z,9.358455
2023-04-02T05:45:39.698Z,9.358420
2023-04-02T05:46:39.760Z,9.358442
2023-04-02T05:47:39.750Z,9.358510
2023-04-02T05:48:39.696Z,9.358535
2023-04-02T05:49:39.677Z,9.358524
2023-04-02T05:50:39.698Z,9.358501
2023-04-02T05:51:39.664Z,9.358560
2023-04-02T05:52:39.631Z,9.358555
2023-04-02T05:53:40.657Z,9.358459
2023-04-02T05:54:39.615Z,9.358401
2023-04-02T05:55:39.634Z,9.358481
2023-04-02T05:56:39.622Z,9.358476
2023-04-02T05:57:46.754Z,9.358556
2023-04-02T05:59:39.583Z,9.358487
2023-04-02T06:00:39.593Z,9.358481
2023-04-02T06:01:39.586Z,9.358525
2023-04-02T06:02:39.646Z,9.358561
2023-04-02T06:03:39.605Z,9.358529
2023-04-02T06:04:39.522Z,9.358505
2023-04-02T06:05:39.522Z,9.358454
2023-04-02T06:06:39.535Z,9.358489
2023-04-02T06:07:39.504Z,9.358468
2023-04-02T06:08:39.518Z,9.358446
2023-04-02T06:09:39.491Z,9.358449
2023-04-02T06:10:39.438Z,9.358469
2023-04-02T06:11:39.447Z,9.358468
2023-04-02T06:12:39.449Z,9.358446
2023-04-02T06:13:39.425Z,9.358547
2023-04-02T06:14:39.405Z,9.358535
2023-04-02T06:15:39.407Z,9.358501
2023-04-02T06:16:39.479Z,9.358456
2023-04-02T06:17:39.400Z,9.358415
2023-04-02T06:18:39.387Z,9.358463
2023-04-02T06:19:39.363Z,9.358493
2023-04-02T06:20:39.341Z,9.358478
2023-04-02T06:21:39.335Z,9.358440
2023-04-02T06:22:39.358Z,9.358486
2023-04-02T06:23:39.311Z,9.358495
2023-04-02T06:24:39.297Z,9.358407
2023-04-02T06:25:39.304Z,9.358431
2023-04-02T06:26:39.282Z,9.358410
2023-04-02T06:27:39.266Z,9.358452
2023-04-02T06:28:39.274Z,9.358487
2023-04-02T06:29:39.251Z,9.358458
2023-04-02T06:30:39.312Z,9.358402
2023-04-02T06:31:39.251Z,9.358482
2023-04-02T06:32:39.287Z,9.358488
2023-04-02T06:33:39.198Z,9.358477
2023-04-02T06:34:39.216Z,9.358484
2023-04-02T06:35:39.288Z,9.358455
2023-04-02T06:36:39.176Z,9.358461
2023-04-02T06:37:39.189Z,9.358452
2023-04-02T06:38:39.171Z,9.358459
2023-04-02T06:39:39.146Z,9.358430
2023-04-02T06:40:39.131Z,9.358479
2023-04-02T06:41:39.130Z,9.358586
2023-04-02T06:42:39.150Z,9.358559
2023-04-02T06:43:39.111Z,9.358583
2023-04-02T06:44:39.099Z,9.358565
2023-04-02T06:45:39.090Z,9.358649
2023-04-02T06:46:39.091Z,9.358613
2023-04-02T06:47:39.161Z,9.358644
2023-04-02T06:48:39.044Z,9.358650
2023-04-02T06:49:39.080Z,9.358597
2023-04-02T06:50:39.019Z,9.358582
2023-04-02T06:51:39.037Z,9.358557
2023-04-02T06:52:39.030Z,9.358563
2023-04-02T06:53:39.029Z,9.358540
2023-04-02T06:54:39.115Z,9.358545
2023-04-02T06:55:39.243Z,9.358494
2023-04-02T06:56:38.998Z,9.358521
2023-04-02T06:57:39.302Z,9.358612
2023-04-02T06:58:38.974Z,9.358571
2023-04-02T06:59:38.943Z,9.358559
2023-04-02T07:00:38.942Z,9.358528
2023-04-02T07:01:38.949Z,9.358546
2023-04-02T07:02:38.957Z,9.358485
2023-04-02T07:03:38.903Z,9.358489
2023-04-02T07:04:38.900Z,9.358518
2023-04-02T07:05:41.002Z,9.358502
2023-04-02T07:06:38.864Z,9.358512
2023-04-02T07:07:38.876Z,9.358540
2023-04-02T07:08:38.863Z,9.358518
2023-04-02T07:09:38.842Z,9.358542
2023-04-02T07:10:38.829Z,9.358533
2023-04-02T07:11:38.823Z,9.358495
2023-04-02T07:12:38.845Z,9.358499
2023-04-02T07:13:38.807Z,9.358569
2023-04-02T07:14:38.758Z,9.358627
2023-04-02T07:15:38.798Z,9.358629
2023-04-02T07:16:38.788Z,9.358563
2023-04-02T07:17:38.785Z,9.358547
2023-04-02T07:18:38.725Z,9.358499
2023-04-02T07:19:38.736Z,9.358467
2023-04-02T07:20:38.734Z,9.358557
2023-04-02T07:21:38.694Z,9.358474
2023-04-02T07:22:38.719Z,9.358494
2023-04-02T07:23:38.695Z,9.358489
2023-04-02T07:24:38.684Z,9.358629
2023-04-02T07:25:38.664Z,9.358579
2023-04-02T07:26:38.698Z,9.358611
2023-04-02T07:27:38.651Z,9.358446
2023-04-02T07:28:38.614Z,9.358556
2023-04-02T07:29:39.668Z,9.358562
2023-04-02T07:30:38.601Z,9.358458
2023-04-02T07:31:38.629Z,9.358388
2023-04-02T07:32:38.677Z,9.358404
2023-04-02T07:33:40.100Z,9.358449
2023-04-02T07:34:38.565Z,9.358539
2023-04-02T07:35:38.709Z,9.358522
2023-04-02T07:36:38.562Z,9.358583
2023-04-02T07:37:38.544Z,9.358592
2023-04-02T07:38:38.542Z,9.358546
2023-04-02T07:39:40.238Z,9.358555
2023-04-02T07:40:38.506Z,9.358617
2023-04-02T07:41:38.489Z,9.358621
2023-04-02T07:42:38.498Z,9.358606
2023-04-02T07:43:38.488Z,9.358625
2023-04-02T07:44:38.457Z,9.358603
2023-04-02T07:45:38.725Z,9.358538
2023-04-02T07:46:38.484Z,9.358512
2023-04-02T07:47:38.469Z,9.358525
2023-04-02T07:48:38.414Z,9.358594
2023-04-02T07:49:38.425Z,9.358594
2023-04-02T07:50:38.413Z,9.358582
2023-04-02T07:51:38.396Z,9.358562
2023-04-02T07:52:40.347Z,9.358557
2023-04-02T07:53:39.386Z,9.358581
2023-04-02T07:54:38.395Z,9.358594
2023-04-02T07:55:38.368Z,9.358586
2023-04-02T07:56:38.365Z,9.358580
2023-04-02T07:57:38.321Z,9.358586
2023-04-02T07:58:39.318Z,9.358497
2023-04-02T07:59:38.333Z,9.358491
2023-04-02T08:00:38.302Z,9.358565
2023-04-02T08:01:38.297Z,9.358510
2023-04-02T08:02:38.320Z,9.358511
2023-04-02T08:03:38.357Z,9.358520
2023-04-02T08:04:38.520Z,9.358654
2023-04-02T08:05:38.299Z,9.358616
2023-04-02T08:06:38.243Z,9.358590
2023-04-02T08:07:38.240Z,9.358600
2023-04-02T08:08:38.209Z,9.358515
2023-04-02T08:09:38.214Z,9.358480
2023-04-02T08:10:38.181Z,9.358493
2023-04-02T08:11:38.168Z,9.358478
2023-04-02T08:12:38.186Z,9.358532
2023-04-02T08:13:38.179Z,9.358591
2023-04-02T08:14:38.162Z,9.358546
2023-04-02T08:15:38.265Z,9.358511
2023-04-02T08:16:38.219Z,9.358541
2023-04-02T08:17:38.163Z,9.358492
2023-04-02T08:18:38.125Z,9.358464
2023-04-02T08:19:48.024Z,9.358467
2023-04-02T08:20:40.090Z,9.358490
2023-04-02T08:21:38.087Z,9.358479
2023-04-02T08:22:38.095Z,9.358520
2023-04-02T08:23:38.073Z,9.358540
2023-04-02T08:24:39.016Z,9.358562
2023-04-02T08:25:38.041Z,9.358543
2023-04-02T08:26:38.002Z,9.358577
2023-04-02T08:27:38.022Z,9.358582
2023-04-02T08:28:38.038Z,9.358503
2023-04-02T08:29:38.003Z,9.358510
2023-04-02T08:30:37.977Z,9.358516
2023-04-02T08:31:37.967Z,9.358477
2023-04-02T08:32:38.122Z,9.358450
2023-04-02T08:33:37.930Z,9.358456
2023-04-02T08:34:37.969Z,9.358483
2023-04-02T08:35:38.131Z,9.358539
2023-04-02T08:36:37.926Z,9.358646
2023-04-02T08:37:37.914Z,9.358579
2023-04-02T08:38:37.912Z,9.358516
2023-04-02T08:39:37.893Z,9.358545
2023-04-02T08:40:37.862Z,9.358610
2023-04-02T08:41:37.885Z,9.358642
2023-04-02T08:42:37.846Z,9.358642
2023-04-02T08:43:37.864Z,9.358579
2023-04-02T08:44:37.870Z,9.358542
2023-04-02T08:45:37.824Z,9.358589
2023-04-02T08:46:37.863Z,9.358606
2023-04-02T08:47:37.810Z,9.358530
2023-04-02T08:48:37.809Z,9.358498
2023-04-02T08:49:37.817Z,9.358480
2023-04-02T08:50:37.798Z,9.358570
2023-04-02T08:51:37.777Z,9.358536
2023-04-02T08:52:37.783Z,9.358492
2023-04-02T08:53:37.742Z,9.358560
2023-04-02T08:54:37.726Z,9.358509
2023-04-02T08:55:37.874Z,9.358587
2023-04-02T08:56:37.716Z,9.358602
2023-04-02T08:57:37.673Z,9.358540
2023-04-02T08:58:37.701Z,9.358556
2023-04-02T08:59:37.688Z,9.358493
2023-04-02T09:00:38.023Z,9.358456
2023-04-02T09:01:38.705Z,9.358437
2023-04-02T09:02:37.697Z,9.358450
2023-04-02T09:03:37.636Z,9.358498
2023-04-02T09:04:37.639Z,9.358497
2023-04-02T09:05:38.054Z,9.358512
2023-04-02T09:06:37.611Z,9.358530
2023-04-02T09:07:37.597Z,9.358528
2023-04-02T09:08:37.619Z,9.358547
2023-04-02T09:09:37.562Z,9.358519
2023-04-02T09:10:37.554Z,9.358533
2023-04-02T09:11:37.556Z,9.358571
2023-04-02T09:12:37.553Z,9.358500
2023-04-02T09:13:37.546Z,9.358437
2023-04-02T09:14:37.530Z,9.358448
2023-04-02T09:15:37.810Z,9.358487
2023-04-02T09:16:37.479Z,9.358487
2023-04-02T09:17:50.524Z,9.358479
2023-04-02T09:18:39.575Z,9.358455
2023-04-02T09:19:37.482Z,9.358438
2023-04-02T09:20:37.443Z,9.358438
2023-04-02T09:21:37.458Z,9.358445
2023-04-02T09:22:37.445Z,9.358475
2023-04-02T09:23:37.431Z,9.358499
2023-04-02T09:24:37.392Z,9.358544
2023-04-02T09:25:37.523Z,9.358525
2023-04-02T09:26:37.398Z,9.358478
2023-04-02T09:27:37.383Z,9.358441
2023-04-02T09:28:37.353Z,9.358441
2023-04-02T09:29:37.381Z,9.358464
2023-04-02T09:30:37.333Z,9.358495
2023-04-02T09:32:09.269Z,9.358466
2023-04-02T09:32:37.397Z,9.358462
2023-04-02T09:33:37.305Z,9.358458
2023-04-02T09:34:37.312Z,9.358500
2023-04-02T09:35:37.450Z,9.358501
2023-04-02T09:36:37.307Z,9.358541
2023-04-02T09:37:37.278Z,9.358488
2023-04-02T09:38:37.257Z,9.358487
2023-04-02T09:39:37.249Z,9.358440
2023-04-02T09:40:37.251Z,9.358530
2023-04-02T09:41:37.362Z,9.358536
2023-04-02T09:42:37.213Z,9.358491
2023-04-02T09:43:37.198Z,9.358501
2023-04-02T09:44:37.233Z,9.358514
2023-04-02T09:45:37.288Z,9.358448
2023-04-02T09:46:37.241Z,9.358469
2023-04-02T09:47:37.307Z,9.358554
2023-04-02T09:48:38.201Z,9.358578
2023-04-02T09:49:37.156Z,9.358552
2023-04-02T09:50:37.139Z,9.358485
2023-04-02T09:51:37.130Z,9.358549
2023-04-02T09:52:37.103Z,9.358502
2023-04-02T09:53:37.119Z,9.358543
2023-04-02T09:54:37.090Z,9.358526
2023-04-02T09:55:37.296Z,9.358541
2023-04-02T09:56:37.085Z,9.358541
2023-04-02T09:57:37.045Z,9.358542
2023-04-02T09:58:38.059Z,9.358562
2023-04-02T09:59:37.056Z,9.358555
2023-04-02T10:00:37.020Z,9.358528
2023-04-02T10:01:37.164Z,9.358525
2023-04-02T10:02:37.089Z,9.358509
2023-04-02T10:03:36.998Z,9.358503
2023-04-02T10:04:37.022Z,9.358495
2023-04-02T10:05:40.948Z,9.358486
2023-04-02T10:06:38.043Z,9.358560
2023-04-02T10:07:36.955Z,9.358565
2023-04-02T10:08:36.954Z,9.358638
2023-04-02T10:09:36.970Z,9.358562
2023-04-02T10:10:37.057Z,9.358536
2023-04-02T10:12:37.906Z,9.358562
2023-04-02T10:13:36.891Z,9.358574
2023-04-02T10:14:36.884Z,9.358603
2023-04-02T10:15:37.085Z,9.358598
2023-04-02T10:16:36.903Z,9.358582
2023-04-02T10:17:36.880Z,9.358635
2023-04-02T10:18:36.845Z,9.358657
2023-04-02T10:19:36.833Z,9.358646
2023-04-02T10:20:48.684Z,9.358605
2023-04-02T10:21:37.810Z,9.358548
2023-04-02T10:22:36.805Z,9.358563
2023-04-02T10:23:36.771Z,9.358563
2023-04-02T10:24:36.795Z,9.358577
2023-04-02T10:25:36.980Z,9.358696
2023-04-02T10:26:36.769Z,9.358680
2023-04-02T10:27:36.740Z,9.358543
2023-04-02T10:28:36.734Z,9.358513
2023-04-02T10:29:36.725Z,9.358572
2023-04-02T10:30:36.732Z,9.358565
2023-04-02T10:31:36.708Z,9.358577
2023-04-02T10:32:36.738Z,9.358646
2023-04-02T10:33:36.673Z,9.358605
2023-04-02T10:34:36.684Z,9.358582
2023-04-02T10:35:36.808Z,9.358564
2023-04-02T10:36:36.656Z,9.358560
2023-04-02T10:37:36.661Z,9.358551
2023-04-02T10:38:36.651Z,9.358539
2023-04-02T10:39:36.618Z,9.358566
2023-04-02T10:40:36.616Z,9.358590
2023-04-02T10:41:36.609Z,9.358597
2023-04-02T10:42:36.590Z,9.358590
2023-04-02T10:43:36.587Z,9.358509
2023-04-02T10:44:36.572Z,9.358482
2023-04-02T10:45:36.882Z,9.358524
2023-04-02T10:46:36.643Z,9.358600
2023-04-02T10:47:36.579Z,9.358620
2023-04-02T10:48:36.562Z,9.358582
2023-04-02T10:49:36.609Z,9.358550
2023-04-02T10:50:36.541Z,9.358542
2023-04-02T10:51:36.517Z,9.358569
2023-04-02T10:52:36.517Z,9.358603
2023-04-02T10:53:36.532Z,9.358594
2023-04-02T10:54:36.491Z,9.358613
2023-04-02T10:55:36.694Z,9.358559
2023-04-02T10:56:47.990Z,9.358577
2023-04-02T10:57:38.506Z,9.358558
2023-04-02T10:58:36.452Z,9.358590
2023-04-02T10:59:36.432Z,9.358571
2023-04-02T11:00:36.411Z,9.358527
2023-04-02T11:01:36.411Z,9.358549
2023-04-02T11:02:37.556Z,9.358532
2023-04-02T11:03:36.454Z,9.358501
2023-04-02T11:04:36.383Z,9.358508
2023-04-02T11:05:36.568Z,9.358568
2023-04-02T11:06:36.353Z,9.358566
2023-04-02T11:07:36.364Z,9.358519
2023-04-02T11:08:36.368Z,9.358463
2023-04-02T11:09:36.320Z,9.358533
2023-04-02T11:10:36.322Z,9.358568
2023-04-02T11:11:36.311Z,9.358572
2023-04-02T11:12:41.410Z,9.358630
2023-04-02T11:13:37.318Z,9.358514
2023-04-02T11:14:36.270Z,9.358595
2023-04-02T11:15:36.652Z,9.358585
2023-04-02T11:16:40.681Z,9.358565
2023-04-02T11:17:38.302Z,9.358620
2023-04-02T11:18:36.220Z,9.358511
2023-04-02T11:19:36.203Z,9.358461
2023-04-02T11:20:36.223Z,9.358500
2023-04-02T11:21:42.229Z,9.358515
2023-04-02T11:22:38.198Z,9.358527
2023-04-02T11:23:36.193Z,9.358520
2023-04-02T11:24:36.161Z,9.358502
2023-04-02T11:25:36.468Z,9.358495
2023-04-02T11:26:36.205Z,9.358485
2023-04-02T11:27:36.126Z,9.358479
2023-04-02T11:28:36.106Z,9.358460
2023-04-02T11:29:36.175Z,9.358442
2023-04-02T11:30:36.098Z,9.358471
2023-04-02T11:31:36.128Z,9.358555
2023-04-02T11:32:36.084Z,9.358654
2023-04-02T11:33:38.333Z,9.358554
2023-04-02T11:34:37.056Z,9.358561
2023-04-02T11:35:36.336Z,9.358543
2023-04-02T11:36:36.064Z,9.358546
2023-04-02T11:37:36.048Z,9.358538
2023-04-02T11:38:36.053Z,9.358591
2023-04-02T11:39:36.011Z,9.358547
2023-04-02T11:40:36.008Z,9.358574
2023-04-02T11:41:35.988Z,9.358569
2023-04-02T11:42:36.012Z,9.358551
2023-04-02T11:43:36.096Z,9.358508
2023-04-02T11:44:35.955Z,9.358523
2023-04-02T11:45:46.428Z,9.358495
2023-04-02T11:46:37.969Z,9.358517